G6210 MYNN-KMEM
Flight info
| Callsign | G6210 |
|---|---|
| Flight time | N/A |
| Altitude | 30000 |
| Route | PEACH DCT JAYMC DCT SMELZ Q116 VLKNN |
| Aircraft | A320/M-SDE3FGHIRWY/LB1 |
Departure
| Time | 2026-05-04 20:20 |
|---|---|
| Airport | Lynden Pindling International Airport (MYNN) |
Arrival
| Time | N/A |
|---|---|
| Airport | Memphis International Airport (KMEM) |
| Time | Latitude | Longitude | Altitude | Speed | Heading |
|---|---|---|---|---|---|
| 2026-05-04 19:59 | 25.04899 | -77.46759 | 24 ft | 0 kts | 155° |
| 2026-05-04 20:12 | 25.04902 | -77.46760 | 24 ft | 0 kts | 143° |
| 2026-05-04 20:12 | 25.04908 | -77.46770 | 24 ft | 2 kts | 116° |
| 2026-05-04 20:13 | 25.04913 | -77.46783 | 24 ft | 1 kts | 133° |
| 2026-05-04 20:13 | 25.04925 | -77.46791 | 24 ft | 2 kts | 150° |
| 2026-05-04 20:13 | 25.04938 | -77.46800 | 24 ft | 2 kts | 146° |
| 2026-05-04 20:13 | 25.04950 | -77.46809 | 24 ft | 1 kts | 166° |
| 2026-05-04 20:14 | 25.04965 | -77.46807 | 24 ft | 2 kts | 217° |
| 2026-05-04 20:14 | 25.04971 | -77.46800 | 24 ft | 1 kts | 245° |
| 2026-05-04 20:14 | 25.04973 | -77.46793 | 24 ft | 0 kts | 246° |
| 2026-05-04 20:16 | 25.04972 | -77.46795 | 24 ft | 2 kts | 246° |
| 2026-05-04 20:16 | 25.04960 | -77.46827 | 24 ft | 6 kts | 246° |
| 2026-05-04 20:17 | 25.04935 | -77.46888 | 25 ft | 10 kts | 246° |
| 2026-05-04 20:17 | 25.04904 | -77.46967 | 27 ft | 11 kts | 265° |
| 2026-05-04 20:17 | 25.04940 | -77.47039 | 27 ft | 11 kts | 312° |
| 2026-05-04 20:17 | 25.04998 | -77.47101 | 27 ft | 12 kts | 316° |
| 2026-05-04 20:18 | 25.05060 | -77.47168 | 27 ft | 12 kts | 314° |
| 2026-05-04 20:18 | 25.05127 | -77.47242 | 26 ft | 14 kts | 315° |
| 2026-05-04 20:18 | 25.05204 | -77.47327 | 24 ft | 16 kts | 309° |
| 2026-05-04 20:18 | 25.05216 | -77.47443 | 24 ft | 15 kts | 254° |
| 2026-05-04 20:19 | 25.05157 | -77.47531 | 24 ft | 12 kts | 154° |
| 2026-05-04 20:19 | 25.05086 | -77.47452 | 25 ft | 26 kts | 135° |
| 2026-05-04 20:19 | 25.04756 | -77.47081 | 28 ft | 106 kts | 135° |
| 2026-05-04 20:19 | 25.04063 | -77.46323 | 31 ft | 170 kts | 133° |
| 2026-05-04 20:20 | 25.03153 | -77.45329 | 507 ft | 188 kts | 134° |
| 2026-05-04 20:20 | 25.02262 | -77.44373 | 1498 ft | 181 kts | 133° |
| 2026-05-04 20:20 | 25.01531 | -77.43261 | 2250 ft | 186 kts | 105° |
| 2026-05-04 20:20 | 25.01535 | -77.41846 | 2792 ft | 202 kts | 69° |
| 2026-05-04 20:21 | 25.02342 | -77.40549 | 3390 ft | 217 kts | 33° |
| 2026-05-04 20:21 | 25.03776 | -77.39980 | 4071 ft | 229 kts | 356° |
| 2026-05-04 20:21 | 25.06205 | -77.41961 | 5090 ft | 245 kts | 283° |
| 2026-05-04 20:22 | 25.06124 | -77.43871 | 5522 ft | 260 kts | 249° |
| 2026-05-04 20:22 | 25.05299 | -77.45654 | 6270 ft | 263 kts | 246° |
| 2026-05-04 20:22 | 25.04921 | -77.47578 | 7005 ft | 264 kts | 276° |
| 2026-05-04 20:22 | 25.05615 | -77.49437 | 7728 ft | 271 kts | 308° |
| 2026-05-04 20:23 | 25.07186 | -77.50603 | 8425 ft | 281 kts | 336° |
| 2026-05-04 20:23 | 25.09041 | -77.51279 | 9117 ft | 284 kts | 335° |
| 2026-05-04 20:23 | 25.10847 | -77.52129 | 9766 ft | 286 kts | 330° |
| 2026-05-04 20:23 | 25.12605 | -77.53170 | 10398 ft | 289 kts | 326° |
| 2026-05-04 20:24 | 25.14352 | -77.54358 | 10735 ft | 303 kts | 323° |
| 2026-05-04 20:24 | 25.16165 | -77.55701 | 11022 ft | 319 kts | 321° |
| 2026-05-04 20:24 | 25.18035 | -77.57147 | 11296 ft | 334 kts | 321° |
| 2026-05-04 20:24 | 25.19968 | -77.58675 | 11628 ft | 347 kts | 320° |
| 2026-05-04 20:25 | 25.21908 | -77.60221 | 12205 ft | 349 kts | 320° |
| 2026-05-04 20:25 | 25.23875 | -77.61800 | 12841 ft | 350 kts | 320° |
| 2026-05-04 20:25 | 25.25848 | -77.63391 | 13438 ft | 352 kts | 320° |
| 2026-05-04 20:25 | 25.27832 | -77.64993 | 13998 ft | 355 kts | 320° |
| 2026-05-04 20:26 | 25.29845 | -77.66625 | 14525 ft | 359 kts | 319° |
| 2026-05-04 20:26 | 25.31844 | -77.68246 | 15021 ft | 362 kts | 319° |
| 2026-05-04 20:26 | 25.33881 | -77.69898 | 15530 ft | 364 kts | 319° |
| 2026-05-04 20:26 | 25.35942 | -77.71572 | 16038 ft | 366 kts | 319° |
| 2026-05-04 20:27 | 25.37988 | -77.73234 | 16481 ft | 370 kts | 319° |
| 2026-05-04 20:27 | 25.40075 | -77.74932 | 16936 ft | 372 kts | 318° |
| 2026-05-04 20:27 | 25.42025 | -77.76816 | 17369 ft | 370 kts | 309° |
| 2026-05-04 20:27 | 25.43612 | -77.78999 | 17793 ft | 369 kts | 300° |
| 2026-05-04 20:28 | 25.44885 | -77.81471 | 18249 ft | 368 kts | 294° |
| 2026-05-04 20:28 | 25.46022 | -77.83980 | 18667 ft | 370 kts | 293° |
| 2026-05-04 20:28 | 25.47168 | -77.86547 | 19042 ft | 373 kts | 293° |
| 2026-05-04 20:28 | 25.48317 | -77.89120 | 19442 ft | 375 kts | 293° |
| 2026-05-04 20:29 | 25.49471 | -77.91701 | 19891 ft | 376 kts | 293° |
| 2026-05-04 20:29 | 25.50633 | -77.94301 | 20280 ft | 378 kts | 293° |
| 2026-05-04 20:29 | 25.51809 | -77.96928 | 20654 ft | 381 kts | 293° |
| 2026-05-04 20:29 | 25.52976 | -77.99543 | 21032 ft | 383 kts | 292° |
| 2026-05-04 20:30 | 25.54164 | -78.02202 | 21397 ft | 385 kts | 293° |
| 2026-05-04 20:30 | 25.55357 | -78.04877 | 21782 ft | 387 kts | 293° |
| 2026-05-04 20:30 | 25.56544 | -78.07533 | 22142 ft | 389 kts | 293° |
| 2026-05-04 20:30 | 25.57740 | -78.10207 | 22464 ft | 392 kts | 293° |
| 2026-05-04 20:31 | 25.58946 | -78.12914 | 22830 ft | 393 kts | 293° |
| 2026-05-04 20:31 | 25.60162 | -78.15645 | 23201 ft | 394 kts | 293° |
| 2026-05-04 20:31 | 25.61375 | -78.18362 | 23556 ft | 396 kts | 293° |
| 2026-05-04 20:31 | 25.62593 | -78.21097 | 23918 ft | 398 kts | 293° |
| 2026-05-04 20:32 | 25.63826 | -78.23865 | 24304 ft | 398 kts | 293° |
| 2026-05-04 20:32 | 25.65038 | -78.26589 | 24656 ft | 399 kts | 293° |
| 2026-05-04 20:32 | 25.66278 | -78.29381 | 24993 ft | 401 kts | 293° |
| 2026-05-04 20:32 | 25.67514 | -78.32161 | 25325 ft | 403 kts | 293° |
| 2026-05-04 20:33 | 25.68034 | -78.33334 | 25442 ft | 404 kts | 293° |
| 2026-05-04 20:33 | 25.68647 | -78.34712 | 25580 ft | 405 kts | 293° |
| 2026-05-04 20:33 | 25.69883 | -78.37497 | 25899 ft | 406 kts | 293° |
| 2026-05-04 20:34 | 25.71123 | -78.40298 | 26230 ft | 407 kts | 293° |
| 2026-05-04 20:34 | 25.72370 | -78.43110 | 26560 ft | 408 kts | 293° |
| 2026-05-04 20:34 | 25.73627 | -78.45946 | 26845 ft | 409 kts | 293° |
| 2026-05-04 20:34 | 25.74892 | -78.48804 | 27113 ft | 411 kts | 293° |
| 2026-05-04 20:35 | 25.76145 | -78.51637 | 27413 ft | 411 kts | 293° |
| 2026-05-04 20:35 | 25.77386 | -78.54446 | 27699 ft | 412 kts | 293° |
| 2026-05-04 20:35 | 25.78659 | -78.57324 | 27982 ft | 412 kts | 293° |
| 2026-05-04 20:35 | 25.79909 | -78.60159 | 28238 ft | 413 kts | 293° |
| 2026-05-04 20:36 | 25.81178 | -78.63030 | 28465 ft | 414 kts | 293° |
| 2026-05-04 20:36 | 25.82440 | -78.65893 | 28692 ft | 415 kts | 292° |
| 2026-05-04 20:36 | 25.83709 | -78.68776 | 28986 ft | 414 kts | 292° |
| 2026-05-04 20:36 | 25.84975 | -78.71651 | 29268 ft | 414 kts | 292° |
| 2026-05-04 20:37 | 25.86237 | -78.74520 | 29499 ft | 414 kts | 292° |
| 2026-05-04 20:37 | 25.87484 | -78.77356 | 29701 ft | 415 kts | 292° |
| 2026-05-04 20:37 | 25.88756 | -78.80251 | 29901 ft | 416 kts | 292° |
| 2026-05-04 20:37 | 25.90028 | -78.83147 | 29953 ft | 418 kts | 292° |
| 2026-05-04 20:38 | 25.92568 | -78.88939 | 29970 ft | 417 kts | 292° |
| 2026-05-04 20:38 | 25.95092 | -78.94705 | 29968 ft | 417 kts | 292° |
| 2026-05-04 20:39 | 25.97622 | -79.00483 | 29963 ft | 415 kts | 292° |
| 2026-05-04 20:39 | 26.00145 | -79.06265 | 29960 ft | 416 kts | 292° |
| 2026-05-04 20:40 | 26.02663 | -79.12040 | 29965 ft | 415 kts | 292° |
| 2026-05-04 20:40 | 26.05159 | -79.17770 | 29967 ft | 414 kts | 292° |
| 2026-05-04 20:41 | 26.07679 | -79.23554 | 29963 ft | 415 kts | 292° |
| 2026-05-04 20:41 | 26.10184 | -79.29327 | 29965 ft | 414 kts | 292° |
| 2026-05-04 20:42 | 26.12680 | -79.35076 | 29966 ft | 414 kts | 292° |
| 2026-05-04 20:42 | 26.15183 | -79.40850 | 29967 ft | 413 kts | 292° |
| 2026-05-04 20:43 | 26.17671 | -79.46606 | 29970 ft | 413 kts | 292° |
| 2026-05-04 20:43 | 26.20150 | -79.52339 | 29975 ft | 413 kts | 293° |
| 2026-05-04 20:44 | 26.22633 | -79.58092 | 29976 ft | 413 kts | 293° |
| 2026-05-04 20:44 | 26.25116 | -79.63855 | 29975 ft | 413 kts | 292° |
| 2026-05-04 20:45 | 26.27602 | -79.69630 | 29979 ft | 414 kts | 292° |
| 2026-05-04 20:45 | 26.30083 | -79.75401 | 29980 ft | 414 kts | 292° |
| 2026-05-04 20:46 | 26.32559 | -79.81171 | 29982 ft | 413 kts | 292° |
| 2026-05-04 20:46 | 26.35040 | -79.86962 | 29988 ft | 413 kts | 292° |
| 2026-05-04 20:47 | 26.37507 | -79.92720 | 29991 ft | 414 kts | 292° |
| 2026-05-04 20:47 | 26.39972 | -79.98487 | 29994 ft | 414 kts | 292° |
| 2026-05-04 20:48 | 26.42442 | -80.04274 | 29995 ft | 414 kts | 292° |
| 2026-05-04 20:48 | 26.44912 | -80.10069 | 29996 ft | 413 kts | 292° |
| 2026-05-04 20:49 | 26.47370 | -80.15838 | 29999 ft | 413 kts | 292° |
| 2026-05-04 20:49 | 26.49828 | -80.21623 | 30001 ft | 413 kts | 292° |
| 2026-05-04 20:50 | 26.52273 | -80.27387 | 29999 ft | 412 kts | 292° |
| 2026-05-04 20:50 | 26.54732 | -80.33183 | 29997 ft | 412 kts | 292° |
| 2026-05-04 20:51 | 26.57183 | -80.38966 | 29991 ft | 414 kts | 292° |
| 2026-05-04 20:51 | 26.59641 | -80.44782 | 29989 ft | 413 kts | 292° |
| 2026-05-04 20:52 | 26.62077 | -80.50558 | 29989 ft | 414 kts | 292° |
| 2026-05-04 20:52 | 26.64524 | -80.56363 | 29990 ft | 414 kts | 292° |
| 2026-05-04 20:53 | 26.66975 | -80.62187 | 29981 ft | 414 kts | 292° |
| 2026-05-04 20:53 | 26.69408 | -80.67970 | 29981 ft | 414 kts | 292° |
| 2026-05-04 20:54 | 26.71866 | -80.73823 | 29978 ft | 416 kts | 292° |
| 2026-05-04 20:54 | 26.74306 | -80.79647 | 29981 ft | 415 kts | 292° |
| 2026-05-04 20:55 | 26.76752 | -80.85491 | 29976 ft | 415 kts | 292° |
| 2026-05-04 20:55 | 26.79186 | -80.91315 | 29979 ft | 414 kts | 292° |
| 2026-05-04 20:56 | 26.81615 | -80.97135 | 29975 ft | 415 kts | 292° |
| 2026-05-04 20:56 | 26.84052 | -81.02984 | 29974 ft | 413 kts | 292° |
| 2026-05-04 20:57 | 26.86467 | -81.08792 | 29976 ft | 413 kts | 292° |
| 2026-05-04 20:57 | 26.88890 | -81.14622 | 29974 ft | 414 kts | 292° |
| 2026-05-04 20:58 | 26.91313 | -81.20474 | 29973 ft | 413 kts | 292° |
| 2026-05-04 20:58 | 26.93728 | -81.26302 | 29977 ft | 413 kts | 292° |
| 2026-05-04 20:59 | 26.96254 | -81.32071 | 29979 ft | 415 kts | 298° |
| 2026-05-04 20:59 | 26.99854 | -81.37128 | 29970 ft | 423 kts | 311° |
| 2026-05-04 21:00 | 27.04603 | -81.41148 | 29978 ft | 432 kts | 322° |
| 2026-05-04 21:00 | 27.09775 | -81.44627 | 29976 ft | 432 kts | 323° |
| 2026-05-04 21:01 | 27.14931 | -81.48058 | 29980 ft | 433 kts | 323° |
| 2026-05-04 21:01 | 27.20120 | -81.51516 | 29975 ft | 433 kts | 323° |
| 2026-05-04 21:02 | 27.25223 | -81.54922 | 29973 ft | 433 kts | 323° |
| 2026-05-04 21:02 | 27.30410 | -81.58387 | 29979 ft | 433 kts | 323° |
| 2026-05-04 21:03 | 27.35590 | -81.61851 | 29980 ft | 433 kts | 323° |
| 2026-05-04 21:03 | 27.40782 | -81.65327 | 29984 ft | 433 kts | 322° |
| 2026-05-04 21:04 | 27.45950 | -81.68793 | 29985 ft | 431 kts | 322° |
| 2026-05-04 21:04 | 27.51073 | -81.72232 | 29976 ft | 432 kts | 322° |
| 2026-05-04 21:05 | 27.56242 | -81.75706 | 29974 ft | 432 kts | 322° |
| 2026-05-04 21:05 | 27.61408 | -81.79182 | 29977 ft | 432 kts | 322° |
| 2026-05-04 21:06 | 27.66593 | -81.82672 | 29975 ft | 433 kts | 322° |
| 2026-05-04 21:06 | 27.71734 | -81.86140 | 29980 ft | 431 kts | 322° |